Time;durP1;ratioP1;P1;durP2;ratioP2;P2;SDS_P1;SDS_P2;PMS_P1;PMS_P2;Temp;Humidity;BMP_temperature;BMP_pressure;BME280_temperature;BME280_humidity;BME280_pressure;Samples;Min_cycle;Max_cycle;Signal;HPM_P1;HPM_P2
2023/08/31 00:02:06;;;;;;;2.28;1.80;;;17.30;92.30;;;;;;5014307;28;20470;-66
2023/08/31 00:04:32;;;;;;;3.38;1.63;;;17.30;92.20;;;;;;5010240;28;20056;-66
2023/08/31 00:06:58;;;;;;;2.13;1.50;;;17.30;92.20;;;;;;5010276;28;20034;-66
2023/08/31 00:09:24;;;;;;;3.25;1.75;;;17.30;92.10;;;;;;5009807;28;20056;-66
2023/08/31 00:11:50;;;;;;;2.47;1.60;;;17.30;92.20;;;;;;5010074;28;20462;-66
2023/08/31 00:14:17;;;;;;;2.13;1.30;;;17.20;92.10;;;;;;5009970;28;20495;-66
2023/08/31 00:16:43;;;;;;;3.60;1.52;;;17.30;92.10;;;;;;4993831;28;20422;-66
2023/08/31 00:19:08;;;;;;;3.03;1.67;;;17.30;92.10;;;;;;5009545;28;20042;-66
2023/08/31 00:21:34;;;;;;;2.80;1.85;;;17.20;92.20;;;;;;5009942;28;20044;-66
2023/08/31 00:24:00;;;;;;;3.25;1.58;;;17.20;92.30;;;;;;5012375;28;20042;-66
2023/08/31 00:26:25;;;;;;;1.88;1.58;;;17.20;92.40;;;;;;5023641;28;20127;-66
2023/08/31 00:28:51;;;;;;;2.03;1.63;;;17.20;92.40;;;;;;5029683;28;20397;-66
2023/08/31 00:31:17;;;;;;;2.15;1.52;;;17.20;92.50;;;;;;5029112;28;20486;-66
2023/08/31 00:33:43;;;;;;;1.48;1.30;;;17.20;92.40;;;;;;5029655;28;20033;-66
2023/08/31 00:36:08;;;;;;;1.98;1.70;;;17.20;92.50;;;;;;5046136;28;20073;-66
2023/08/31 00:38:34;;;;;;;2.15;1.50;;;17.20;92.50;;;;;;5051634;28;20036;-66
2023/08/31 00:41:00;;;;;;;1.65;1.55;;;17.20;92.50;;;;;;5048292;28;20026;-66
2023/08/31 00:43:26;;;;;;;3.25;1.77;;;17.20;92.60;;;;;;5051388;28;20025;-66
2023/08/31 00:45:57;;;;;;;1.85;1.60;;;17.20;92.90;;;;;;5055171;28;20036;-66
2023/08/31 00:48:24;;;;;;;2.28;1.50;;;17.20;93.10;;;;;;5054917;28;20565;-66
2023/08/31 00:50:50;;;;;;;1.83;1.58;;;17.20;93.20;;;;;;5055173;28;20033;-66
2023/08/31 00:53:17;;;;;;;3.05;1.90;;;17.20;93.30;;;;;;5054717;28;20025;-66
2023/08/31 00:55:44;;;;;;;2.08;1.88;;;17.10;93.30;;;;;;5054868;28;20049;-66
2023/08/31 00:58:10;;;;;;;1.45;1.30;;;17.10;93.50;;;;;;5054619;28;20029;-66
2023/08/31 01:01:00;;;;;;;1.77;1.67;;;17.10;93.60;;;;;;5054992;28;20546;-66
2023/08/31 01:03:35;;;;;;;2.20;1.70;;;17.10;93.70;;;;;;5054606;28;20224;-66
2023/08/31 01:06:10;;;;;;;2.53;1.60;;;17.10;93.80;;;;;;5054996;28;20055;-66
2023/08/31 01:08:55;;;;;;;3.17;1.98;;;17.10;94.10;;;;;;5055039;28;20056;-66
2023/08/31 01:11:45;;;;;;;2.45;1.45;;;17.10;94.30;;;;;;5036535;28;20373;-66
2023/08/31 01:14:19;;;;;;;3.25;1.90;;;17.00;94.60;;;;;;5054575;28;20021;-66
2023/08/31 01:16:48;;;;;;;3.28;1.83;;;17.00;95.00;;;;;;5054678;28;20063;-66
2023/08/31 01:19:42;;;;;;;2.45;1.55;;;17.00;95.20;;;;;;5054268;28;20056;-66
2023/08/31 01:22:16;;;;;;;3.47;1.80;;;17.00;95.10;;;;;;5054389;28;20031;-67
2023/08/31 01:24:42;;;;;;;2.00;1.60;;;17.00;95.10;;;;;;5036908;28;20112;-66
2023/08/31 01:27:09;;;;;;;2.65;1.60;;;17.00;95.10;;;;;;5054175;28;20029;-68
2023/08/31 01:29:35;;;;;;;1.92;1.70;;;16.90;95.20;;;;;;5054647;28;20476;-66
2023/08/31 01:32:00;;;;;;;1.80;1.67;;;16.90;95.50;;;;;;5054378;28;20025;-66
2023/08/31 01:34:26;;;;;;;4.28;1.90;;;16.90;96.00;;;;;;5054043;28;20350;-66
2023/08/31 01:36:58;;;;;;;2.20;1.90;;;16.80;96.70;;;;;;5054359;28;20029;-66
2023/08/31 01:39:41;;;;;;;3.33;1.75;;;16.80;97.50;;;;;;5053877;28;20075;-66
2023/08/31 01:42:08;;;;;;;4.38;2.20;;;16.80;98.20;;;;;;5054390;28;20040;-66
2023/08/31 01:44:36;;;;;;;3.97;2.08;;;16.80;98.70;;;;;;5053887;28;20366;-66
2023/08/31 01:47:07;;;;;;;3.03;2.55;;;16.70;99.30;;;;;;5054113;28;20107;-66
2023/08/31 01:49:39;;;;;;;3.20;2.22;;;16.70;99.90;;;;;;5035873;28;20089;-66
2023/08/31 01:52:06;;;;;;;2.20;1.90;;;16.60;99.90;;;;;;5053971;28;20033;-66
2023/08/31 01:54:32;;;;;;;4.63;2.30;;;16.70;99.90;;;;;;5053488;28;20049;-66
2023/08/31 01:56:58;;;;;;;3.67;2.30;;;16.60;99.90;;;;;;5053050;28;20500;-66
2023/08/31 01:59:24;;;;;;;2.72;2.03;;;16.60;99.90;;;;;;5053478;28;20033;-66
2023/08/31 02:01:50;;;;;;;5.88;2.45;;;16.60;99.90;;;;;;5053645;28;20051;-66
2023/08/31 02:04:16;;;;;;;2.13;1.92;;;16.60;99.90;;;;;;5053384;28;20040;-66
2023/08/31 02:06:42;;;;;;;3.13;2.17;;;16.50;99.90;;;;;;5035892;28;20032;-65
2023/08/31 02:09:08;;;;;;;3.65;2.30;;;16.50;99.90;;;;;;5053383;28;20025;-66
2023/08/31 02:11:37;;;;;;;2.35;2.00;;;16.60;99.90;;;;;;5053243;28;20025;-66
2023/08/31 02:14:04;;;;;;;2.05;1.88;;;16.50;99.90;;;;;;5053514;28;20035;-66
2023/08/31 02:16:30;;;;;;;2.65;2.10;;;16.50;99.90;;;;;;5053132;28;20147;-66
2023/08/31 02:18:55;;;;;;;4.47;2.15;;;16.50;99.90;;;;;;5053180;28;20116;-66
2023/08/31 02:21:22;;;;;;;3.15;2.50;;;16.40;99.90;;;;;;5052755;28;20039;-66
2023/08/31 02:23:48;;;;;;;5.13;2.40;;;16.40;99.90;;;;;;5053445;28;20109;-66
2023/08/31 02:26:14;;;;;;;2.88;2.28;;;16.50;99.90;;;;;;5053002;28;20052;-66
2023/08/31 02:28:39;;;;;;;2.83;2.38;;;16.50;99.90;;;;;;5053321;28;20111;-66
2023/08/31 02:31:05;;;;;;;8.13;2.42;;;16.50;99.90;;;;;;5051441;28;20025;-66
2023/08/31 02:33:30;;;;;;;2.55;2.25;;;16.40;99.90;;;;;;5045304;28;20030;-66
2023/08/31 02:35:56;;;;;;;5.32;2.17;;;16.50;99.90;;;;;;5033335;28;20032;-66
2023/08/31 02:38:22;;;;;;;2.90;2.60;;;16.50;99.90;;;;;;5032730;28;20430;-66
2023/08/31 02:40:48;;;;;;;4.10;2.67;;;16.50;99.90;;;;;;5035710;28;20021;-66
2023/08/31 02:43:15;;;;;;;3.85;2.10;;;16.50;99.90;;;;;;5032750;28;20036;-67
2023/08/31 02:45:40;;;;;;;4.95;2.13;;;16.50;99.90;;;;;;5033224;28;20466;-66
2023/08/31 02:48:09;;;;;;;3.55;2.30;;;16.50;99.90;;;;;;5032783;28;20041;-66
2023/08/31 02:50:35;;;;;;;2.67;2.30;;;16.40;99.90;;;;;;5033036;28;20026;-66
2023/08/31 02:53:01;;;;;;;7.32;2.35;;;16.40;99.90;;;;;;5033114;28;20036;-66
2023/08/31 02:55:27;;;;;;;2.95;2.20;;;16.40;99.90;;;;;;5032776;28;20041;-66
2023/08/31 02:57:54;;;;;;;2.72;2.13;;;16.40;99.90;;;;;;5032612;28;20025;-66
2023/08/31 03:00:23;;;;;;;3.63;2.20;;;16.40;99.90;;;;;;5032510;28;20080;-66
2023/08/31 03:02:51;;;;;;;5.07;2.40;;;16.40;99.90;;;;;;5032928;28;20470;-66
2023/08/31 03:05:17;;;;;;;2.60;2.40;;;16.40;99.90;;;;;;5032337;28;20037;-66
2023/08/31 03:07:43;;;;;;;2.72;2.25;;;16.30;99.90;;;;;;5032925;28;20033;-66
2023/08/31 03:10:09;;;;;;;4.82;2.30;;;16.30;99.90;;;;;;5032821;28;20021;-66
2023/08/31 03:12:35;;;;;;;3.10;2.10;;;16.30;99.90;;;;;;5032244;28;20425;-66
2023/08/31 03:15:00;;;;;;;2.88;2.28;;;16.30;99.90;;;;;;5032659;28;20142;-66
2023/08/31 03:17:26;;;;;;;3.83;2.30;;;16.30;99.90;;;;;;5032203;28;20336;-66
2023/08/31 03:19:51;;;;;;;3.42;2.22;;;16.30;99.90;;;;;;5032594;28;20041;-66
2023/08/31 03:22:17;;;;;;;2.85;2.08;;;16.30;99.90;;;;;;5032126;28;20169;-67
2023/08/31 03:24:43;;;;;;;3.03;2.50;;;16.30;99.90;;;;;;5032556;28;20033;-66
2023/08/31 03:27:08;;;;;;;3.40;2.20;;;16.30;99.90;;;;;;5032497;28;20029;-66
2023/08/31 03:29:34;;;;;;;4.35;2.78;;;16.30;99.90;;;;;;5032136;28;20053;-66
2023/08/31 03:32:01;;;;;;;2.67;2.30;;;16.30;99.90;;;;;;5032378;28;20347;-66
2023/08/31 03:34:30;;;;;;;3.20;2.30;;;16.30;99.90;;;;;;5014361;28;20030;-66
2023/08/31 03:36:58;;;;;;;6.25;2.42;;;16.20;99.90;;;;;;5032456;28;20030;-66
2023/08/31 03:39:25;;;;;;;3.42;2.05;;;16.20;99.90;;;;;;5031578;28;20040;-66
2023/08/31 03:41:50;;;;;;;2.85;2.40;;;16.20;99.90;;;;;;5032450;28;20033;-66
2023/08/31 03:44:16;;;;;;;3.72;2.13;;;16.20;99.90;;;;;;5032425;28;20029;-66
2023/08/31 03:46:43;;;;;;;3.50;2.17;;;16.20;99.90;;;;;;5031888;28;20029;-66
2023/08/31 03:49:08;;;;;;;5.90;2.28;;;16.20;99.90;;;;;;5014858;28;20363;-66
2023/08/31 03:51:34;;;;;;;4.97;2.30;;;16.20;99.90;;;;;;5032312;28;20040;-66
2023/08/31 03:54:00;;;;;;;4.72;2.00;;;16.30;99.90;;;;;;5014778;28;20029;-66
2023/08/31 03:56:26;;;;;;;5.05;2.20;;;16.20;99.90;;;;;;5031848;28;20053;-65
2023/08/31 03:58:52;;;;;;;3.67;2.17;;;16.30;99.90;;;;;;5032078;28;20041;-67
2023/08/31 04:01:18;;;;;;;2.55;2.13;;;16.20;99.90;;;;;;5031937;28;20032;-66
2023/08/31 04:03:43;;;;;;;4.53;2.55;;;16.30;99.90;;;;;;5031444;28;20029;-65
2023/08/31 04:06:09;;;;;;;3.00;2.10;;;16.30;99.90;;;;;;5032122;28;20094;-66
2023/08/31 04:08:35;;;;;;;4.03;2.40;;;16.30;99.90;;;;;;5031691;28;20600;-65
2023/08/31 04:11:00;;;;;;;2.50;1.90;;;16.20;99.90;;;;;;5032019;28;20033;-65
2023/08/31 04:13:26;;;;;;;4.10;2.05;;;16.20;99.90;;;;;;5031587;28;20097;-66
2023/08/31 04:15:52;;;;;;;2.22;2.03;;;16.20;99.90;;;;;;5014301;28;20389;-66
2023/08/31 04:18:18;;;;;;;3.17;2.08;;;16.20;99.90;;;;;;5031986;28;20029;-66
2023/08/31 04:20:51;;;;;;;2.53;1.80;;;16.20;99.90;;;;;;5034796;28;20037;-66
2023/08/31 04:23:20;;;;;;;3.15;1.77;;;16.20;99.90;;;;;;5035571;28;20505;-66
2023/08/31 04:25:47;;;;;;;3.03;1.92;;;16.20;99.90;;;;;;5035765;28;20040;-66
2023/08/31 04:28:13;;;;;;;2.92;1.90;;;16.20;99.90;;;;;;5017648;28;20040;-66
2023/08/31 04:30:40;;;;;;;2.30;2.08;;;16.20;99.90;;;;;;5034923;28;20385;-67
2023/08/31 04:33:06;;;;;;;2.55;1.95;;;16.20;99.90;;;;;;5020017;28;20029;-66
2023/08/31 04:35:32;;;;;;;2.08;1.80;;;16.20;99.90;;;;;;5035121;28;20037;-66
2023/08/31 04:37:58;;;;;;;3.22;2.00;;;16.20;99.90;;;;;;5052279;28;20132;-66
2023/08/31 04:40:24;;;;;;;2.10;1.90;;;16.20;99.90;;;;;;5055144;28;20508;-67
2023/08/31 04:42:50;;;;;;;2.13;1.90;;;16.20;99.90;;;;;;5051756;28;20106;-66
2023/08/31 04:45:16;;;;;;;4.80;2.28;;;16.20;99.90;;;;;;5055292;28;20035;-66
2023/08/31 04:47:42;;;;;;;4.82;2.38;;;16.20;99.90;;;;;;5054648;28;20412;-66
2023/08/31 04:50:08;;;;;;;3.20;2.10;;;16.20;99.90;;;;;;5056010;28;20025;-66
2023/08/31 04:52:34;;;;;;;8.27;2.42;;;16.30;99.90;;;;;;5054434;28;20108;-66
2023/08/31 04:55:07;;;;;;;3.95;2.20;;;16.30;99.90;;;;;;5030674;28;20139;-66
2023/08/31 04:57:33;;;;;;;4.60;2.30;;;16.30;99.90;;;;;;5074791;28;20060;-67
2023/08/31 04:59:59;;;;;;;6.20;2.08;;;16.30;99.90;;;;;;5074803;28;20094;-67
2023/08/31 05:02:24;;;;;;;7.45;2.28;;;16.30;99.90;;;;;;5074985;28;20028;-68
2023/08/31 05:04:51;;;;;;;4.22;2.10;;;16.30;99.90;;;;;;5075379;28;20373;-66
2023/08/31 05:07:16;;;;;;;3.03;2.20;;;16.30;99.90;;;;;;5074701;28;20077;-66
2023/08/31 05:09:42;;;;;;;2.00;1.88;;;16.30;99.90;;;;;;5074890;28;20479;-66
2023/08/31 05:12:08;;;;;;;3.53;2.13;;;16.30;99.90;;;;;;5074523;28;20511;-66
2023/08/31 05:14:37;;;;;;;3.15;2.20;;;16.30;99.90;;;;;;5074609;28;20142;-67
2023/08/31 05:17:04;;;;;;;2.63;2.13;;;16.40;99.90;;;;;;5074840;28;20033;-67
2023/08/31 05:19:30;;;;;;;3.35;2.10;;;16.40;99.90;;;;;;5074223;28;20372;-67
2023/08/31 05:21:55;;;;;;;4.35;2.30;;;16.40;99.90;;;;;;5074654;28;20116;-66
2023/08/31 05:24:21;;;;;;;4.57;2.10;;;16.50;99.90;;;;;;5074412;28;20020;-67
2023/08/31 05:26:47;;;;;;;2.22;1.88;;;16.50;99.90;;;;;;5073925;28;20496;-67
2023/08/31 05:29:12;;;;;;;4.82;2.17;;;16.50;99.90;;;;;;5074542;28;20036;-66
2023/08/31 05:31:38;;;;;;;5.07;1.98;;;16.60;99.90;;;;;;5072448;28;20025;-67
2023/08/31 05:34:03;;;;;;;4.05;1.80;;;16.70;99.90;;;;;;5074680;28;20094;-67
2023/08/31 05:36:29;;;;;;;3.75;1.83;;;16.80;99.90;;;;;;5074217;28;20025;-67
2023/08/31 05:38:54;;;;;;;3.15;1.80;;;16.90;99.90;;;;;;5074238;28;20032;-68
2023/08/31 05:41:20;;;;;;;2.25;1.60;;;16.90;99.60;;;;;;5074289;28;20028;-66
2023/08/31 05:43:46;;;;;;;4.72;2.10;;;17.00;99.70;;;;;;5073706;28;20036;-66
2023/08/31 05:46:12;;;;;;;3.42;2.13;;;17.10;99.80;;;;;;5074071;28;20381;-65
2023/08/31 05:48:38;;;;;;;2.72;1.50;;;17.20;99.30;;;;;;5073865;28;20029;-65
2023/08/31 05:51:03;;;;;;;1.92;1.70;;;17.20;98.50;;;;;;5072810;28;20408;-65
2023/08/31 05:53:33;;;;;;;5.13;1.90;;;17.20;98.10;;;;;;5073552;28;20495;-65
2023/08/31 05:56:05;;;;;;;4.82;2.20;;;17.30;98.10;;;;;;5058963;28;20052;-66
2023/08/31 05:58:32;;;;;;;3.70;2.15;;;17.40;97.80;;;;;;5053334;28;20033;-68
2023/08/31 06:00:58;;;;;;;1.80;1.55;;;17.50;97.70;;;;;;5054130;28;20037;-67
2023/08/31 06:03:24;;;;;;;4.80;1.65;;;17.70;97.00;;;;;;5053800;28;20036;-67
2023/08/31 06:05:50;;;;;;;4.75;1.85;;;17.80;96.10;;;;;;5035545;28;20041;-67
2023/08/31 06:08:15;;;;;;;2.30;1.63;;;17.80;96.10;;;;;;5053756;28;20033;-67
2023/08/31 06:10:41;;;;;;;6.72;2.13;;;18.00;95.50;;;;;;5053051;28;20033;-67
2023/08/31 06:13:07;;;;;;;3.97;1.85;;;18.10;95.40;;;;;;5053709;28;20075;-67
2023/08/31 06:15:32;;;;;;;2.55;1.55;;;18.30;95.00;;;;;;5053164;28;20100;-66
2023/08/31 06:17:58;;;;;;;1.77;1.40;;;18.30;93.20;;;;;;5053094;28;20029;-67
2023/08/31 06:20:24;;;;;;;3.50;1.60;;;18.50;92.60;;;;;;5053374;28;20477;-66
2023/08/31 06:22:49;;;;;;;2.65;1.88;;;18.60;92.10;;;;;;5052994;28;20032;-65
2023/08/31 06:25:16;;;;;;;2.50;1.23;;;18.80;91.50;;;;;;5053024;28;20033;-66
2023/08/31 06:27:45;;;;;;;1.20;1.10;;;18.90;90.50;;;;;;5053012;28;20025;-68
2023/08/31 06:30:15;;;;;;;2.28;1.45;;;19.00;90.60;;;;;;5047194;28;20022;-67
2023/08/31 06:32:45;;;;;;;3.05;1.50;;;19.10;89.70;;;;;;5033645;28;20369;-67
2023/08/31 06:35:12;;;;;;;6.22;1.70;;;19.20;89.00;;;;;;5033604;28;20061;-67
2023/08/31 06:37:39;;;;;;;3.65;1.67;;;19.50;89.40;;;;;;5032721;28;20041;-67
2023/08/31 06:40:08;;;;;;;6.13;1.45;;;19.70;88.10;;;;;;5041508;28;20067;-66
2023/08/31 06:42:33;;;;;;;1.98;1.40;;;19.90;87.00;;;;;;5048895;28;20117;-67
2023/08/31 06:44:59;;;;;;;2.15;1.40;;;20.00;84.10;;;;;;5053448;28;20155;-67
2023/08/31 06:47:25;;;;;;;2.65;1.20;;;20.10;84.40;;;;;;5052643;28;20024;-66
2023/08/31 06:49:50;;;;;;;3.80;1.38;;;20.10;83.20;;;;;;5052722;28;20032;-66
2023/08/31 06:52:16;;;;;;;3.50;1.50;;;20.10;82.30;;;;;;5052946;28;20021;-66
2023/08/31 06:54:42;;;;;;;3.33;1.65;;;20.20;82.40;;;;;;5052036;28;20052;-66
2023/08/31 06:57:08;;;;;;;3.13;1.70;;;20.40;81.90;;;;;;5052636;28;20472;-65
2023/08/31 06:59:33;;;;;;;5.30;1.70;;;20.40;79.80;;;;;;5052282;28;20490;-66
2023/08/31 07:01:59;;;;;;;1.60;1.30;;;20.50;78.90;;;;;;5052805;28;20035;-66
2023/08/31 07:04:27;;;;;;;2.53;1.35;;;20.80;79.20;;;;;;5052533;28;20523;-66
2023/08/31 07:06:52;;;;;;;3.22;1.17;;;21.10;77.00;;;;;;5052150;28;20107;-65
2023/08/31 07:09:18;;;;;;;1.73;1.50;;;21.40;75.10;;;;;;5052572;28;20033;-65
2023/08/31 07:11:44;;;;;;;1.80;1.40;;;21.80;73.10;;;;;;5052079;28;20025;-65
2023/08/31 07:14:09;;;;;;;1.95;1.17;;;22.10;71.90;;;;;;5034686;28;20033;-65
2023/08/31 07:16:35;;;;;;;5.60;1.20;;;22.70;70.40;;;;;;5051677;28;20175;-66
2023/08/31 07:19:02;;;;;;;4.13;1.45;;;23.40;68.80;;;;;;5052050;28;20462;-66
2023/08/31 07:21:28;;;;;;;2.55;1.40;;;24.20;65.50;;;;;;5052244;28;20037;-66
2023/08/31 07:23:54;;;;;;;2.28;1.40;;;24.90;63.20;;;;;;5051945;28;20210;-66
2023/08/31 07:26:20;;;;;;;3.60;1.38;;;25.60;60.70;;;;;;5052115;28;20488;-66
2023/08/31 07:28:46;;;;;;;2.03;1.20;;;25.70;59.30;;;;;;5051781;28;20037;-66
2023/08/31 07:31:12;;;;;;;5.18;1.23;;;26.10;58.00;;;;;;5052222;28;20017;-65
2023/08/31 07:33:38;;;;;;;4.57;1.67;;;26.40;58.10;;;;;;5051769;28;20052;-66
2023/08/31 07:36:05;;;;;;;2.17;1.20;;;26.70;56.30;;;;;;5052489;28;20458;-65
2023/08/31 07:38:31;;;;;;;1.83;1.20;;;27.50;55.70;;;;;;5051993;28;20029;-67
2023/08/31 07:40:57;;;;;;;2.13;1.10;;;27.90;53.60;;;;;;5051221;28;20063;-65
2023/08/31 07:43:23;;;;;;;2.05;1.20;;;27.70;52.70;;;;;;5051642;28;20021;-66
2023/08/31 07:45:49;;;;;;;2.20;1.42;;;28.20;52.10;;;;;;5051506;28;20082;-66
2023/08/31 07:48:15;;;;;;;4.90;1.33;;;28.60;50.90;;;;;;5051651;28;20385;-65
2023/08/31 07:50:41;;;;;;;1.63;1.30;;;29.30;49.70;;;;;;5051591;28;20105;-65
2023/08/31 07:53:07;;;;;;;2.47;1.30;;;29.10;48.60;;;;;;5052019;28;20024;-67
2023/08/31 07:55:33;;;;;;;3.55;1.20;;;29.40;48.10;;;;;;5055004;28;20351;-65
2023/08/31 07:57:59;;;;;;;4.35;1.50;;;28.70;48.00;;;;;;5055596;28;20060;-66
2023/08/31 08:00:24;;;;;;;4.35;1.30;;;28.30;48.90;;;;;;5055877;28;20098;-66
2023/08/31 08:02:50;;;;;;;1.95;1.55;;;28.20;49.00;;;;;;5055127;28;20513;-66
2023/08/31 08:05:15;;;;;;;2.00;1.55;;;27.60;49.40;;;;;;5055832;28;20112;-66
2023/08/31 08:07:42;;;;;;;2.45;1.48;;;27.50;49.80;;;;;;5055086;28;20085;-65
2023/08/31 08:10:09;;;;;;;2.92;1.50;;;27.70;50.00;;;;;;5055618;28;20037;-65
2023/08/31 08:12:39;;;;;;;3.20;1.58;;;28.10;49.10;;;;;;5055572;28;20403;-65
2023/08/31 08:15:07;;;;;;;3.47;1.60;;;28.30;49.10;;;;;;5055594;28;20025;-65
2023/08/31 08:17:33;;;;;;;6.03;1.77;;;28.80;48.20;;;;;;5055518;28;20056;-65
2023/08/31 08:19:58;;;;;;;1.58;1.35;;;28.90;47.10;;;;;;5054931;28;20072;-66
2023/08/31 08:22:27;;;;;;;2.85;1.70;;;28.70;48.00;;;;;;5055719;28;20407;-66
2023/08/31 08:24:53;;;;;;;4.80;1.50;;;28.80;48.10;;;;;;5054727;28;20032;-67
2023/08/31 08:27:18;;;;;;;3.33;1.50;;;28.80;47.70;;;;;;5055135;28;20029;-66
2023/08/31 08:29:45;;;;;;;4.28;1.48;;;29.00;48.10;;;;;;5055024;28;20029;-66
2023/08/31 08:32:11;;;;;;;3.97;1.55;;;29.00;46.80;;;;;;5041374;28;20041;-65
2023/08/31 08:34:36;;;;;;;2.25;1.58;;;28.80;47.30;;;;;;5035628;28;20359;-67
2023/08/31 08:37:03;;;;;;;4.32;1.50;;;28.30;47.10;;;;;;5034943;28;20026;-65
2023/08/31 08:39:29;;;;;;;3.78;1.55;;;28.00;48.00;;;;;;5035173;28;20060;-66
2023/08/31 08:41:58;;;;;;;6.93;1.52;;;27.60;48.30;;;;;;5034507;28;20072;-66
2023/08/31 08:44:32;;;;;;;1.95;1.30;;;27.30;48.60;;;;;;5037375;28;20104;-66
2023/08/31 08:47:00;;;;;;;2.65;1.33;;;26.70;49.50;;;;;;5034917;28;20022;-66
2023/08/31 08:49:26;;;;;;;2.35;1.60;;;26.50;49.10;;;;;;5035145;28;20084;-65
2023/08/31 08:51:52;;;;;;;1.52;1.40;;;26.30;49.80;;;;;;5034409;28;20030;-65
2023/08/31 08:54:19;;;;;;;3.33;1.17;;;25.60;51.20;;;;;;5034803;28;20079;-65
2023/08/31 08:56:45;;;;;;;4.07;1.50;;;25.10;51.20;;;;;;5034776;28;20385;-65
2023/08/31 08:59:13;;;;;;;1.55;1.23;;;24.70;53.20;;;;;;5034817;28;20025;-66
2023/08/31 09:01:39;;;;;;;2.50;1.13;;;24.30;53.90;;;;;;5034581;28;20485;-67
2023/08/31 09:04:05;;;;;;;3.00;1.52;;;24.10;54.70;;;;;;5034453;28;20030;-67
2023/08/31 09:06:30;;;;;;;2.53;1.50;;;24.10;54.50;;;;;;5034710;28;20399;-67
2023/08/31 09:08:56;;;;;;;3.88;1.48;;;23.70;54.50;;;;;;5034154;28;20060;-67
2023/08/31 09:11:23;;;;;;;2.20;1.10;;;23.60;55.20;;;;;;5034703;28;20075;-67
2023/08/31 09:13:50;;;;;;;2.90;1.17;;;23.50;55.80;;;;;;5034236;28;20079;-67
2023/08/31 09:16:26;;;;;;;4.68;1.27;;;23.40;56.00;;;;;;5034822;28;20021;-67
2023/08/31 09:18:52;;;;;;;3.60;1.27;;;23.20;55.70;;;;;;5034109;28;20037;-66
2023/08/31 09:21:19;;;;;;;2.78;1.30;;;23.20;55.30;;;;;;5034661;28;20140;-66
2023/08/31 09:23:55;;;;;;;2.95;1.13;;;23.30;56.60;;;;;;5034136;28;20061;-67
2023/08/31 09:26:20;;;;;;;1.95;1.08;;;23.40;56.50;;;;;;5034853;28;20105;-67
2023/08/31 09:28:46;;;;;;;1.20;1.10;;;23.30;56.70;;;;;;5034116;28;20613;-67
2023/08/31 09:31:12;;;;;;;1.92;1.00;;;23.10;55.60;;;;;;5034440;28;20025;-66
2023/08/31 09:33:37;;;;;;;1.17;0.82;;;22.90;56.90;;;;;;5016617;28;20025;-67
2023/08/31 09:36:04;;;;;;;1.88;1.40;;;22.90;57.50;;;;;;5034032;28;20029;-67
2023/08/31 09:38:29;;;;;;;1.73;1.20;;;22.60;58.20;;;;;;5034321;28;20037;-65
2023/08/31 09:41:08;;;;;;;3.80;1.58;;;22.40;59.40;;;;;;5033856;28;20111;-66
2023/08/31 09:43:33;;;;;;;4.32;1.33;;;22.30;60.00;;;;;;5033984;28;20116;-67
2023/08/31 09:46:01;;;;;;;4.60;1.20;;;22.20;60.60;;;;;;5033600;28;20108;-67
2023/08/31 09:48:27;;;;;;;1.70;1.10;;;22.10;60.70;;;;;;5033910;28;20033;-65
2023/08/31 09:50:55;;;;;;;2.33;1.00;;;22.00;60.90;;;;;;5033544;28;20378;-66
2023/08/31 09:53:21;;;;;;;1.50;0.98;;;22.00;60.50;;;;;;5033798;28;20036;-65
2023/08/31 09:55:51;;;;;;;1.85;1.15;;;21.90;60.10;;;;;;5032812;28;20056;-66
2023/08/31 09:58:22;;;;;;;1.80;1.08;;;21.90;60.50;;;;;;5033622;28;20033;-66
2023/08/31 10:00:50;;;;;;;1.92;1.63;;;22.00;60.40;;;;;;5033156;28;20026;-67
2023/08/31 10:03:16;;;;;;;2.78;1.50;;;22.10;60.40;;;;;;5033571;28;20116;-65
2023/08/31 10:05:45;;;;;;;2.38;1.73;;;22.30;60.90;;;;;;5033239;28;20467;-66
2023/08/31 10:08:12;;;;;;;2.25;1.58;;;22.40;60.50;;;;;;5032974;28;20052;-66
2023/08/31 10:10:39;;;;;;;2.75;1.50;;;22.50;60.60;;;;;;5033507;28;20027;-66
2023/08/31 10:13:05;;;;;;;2.20;1.30;;;22.70;60.60;;;;;;5032985;28;20029;-66
2023/08/31 10:15:36;;;;;;;2.00;1.60;;;22.80;59.20;;;;;;5015678;28;20033;-66
2023/08/31 10:18:03;;;;;;;1.52;1.17;;;22.90;58.40;;;;;;5032363;28;20030;-66
2023/08/31 10:20:33;;;;;;;3.67;1.10;;;22.80;58.70;;;;;;5032903;28;20501;-65
2023/08/31 10:23:06;;;;;;;1.13;1.02;;;22.70;58.30;;;;;;5032999;28;20032;-66
2023/08/31 10:25:50;;;;;;;3.17;1.40;;;22.60;58.20;;;;;;5034134;28;20037;-66
2023/08/31 10:28:20;;;;;;;2.05;1.10;;;22.60;59.00;;;;;;5032912;28;20036;-66
2023/08/31 10:31:04;;;;;;;5.57;1.38;;;22.50;58.20;;;;;;5033145;28;20029;-66
2023/08/31 10:33:46;;;;;;;2.17;1.13;;;22.50;57.10;;;;;;5032969;28;20033;-66
2023/08/31 10:36:17;;;;;;;1.60;1.05;;;22.50;56.40;;;;;;5032672;28;20022;-66
2023/08/31 10:38:59;;;;;;;3.07;1.03;;;22.40;55.90;;;;;;5035310;28;20056;-66
2023/08/31 10:41:31;;;;;;;2.60;1.23;;;22.30;55.80;;;;;;5033165;28;20029;-66
2023/08/31 10:43:57;;;;;;;3.58;1.30;;;22.20;56.70;;;;;;5032685;28;20025;-66
2023/08/31 10:46:34;;;;;;;2.65;1.20;;;22.10;56.90;;;;;;5035283;28;20424;-66
2023/08/31 10:49:09;;;;;;;1.25;1.15;;;22.20;57.30;;;;;;5032416;28;20036;-66
2023/08/31 10:51:36;;;;;;;1.10;1.00;;;22.20;58.10;;;;;;5032569;28;20492;-66
2023/08/31 10:54:20;;;;;;;3.00;1.60;;;22.40;58.00;;;;;;5032346;28;20056;-66
2023/08/31 10:57:07;;;;;;;3.75;1.52;;;22.50;56.90;;;;;;5032488;28;20080;-65
2023/08/31 10:59:50;;;;;;;1.40;1.15;;;22.60;57.60;;;;;;5033209;28;20029;-66
2023/08/31 11:02:35;;;;;;;1.50;1.23;;;22.70;56.60;;;;;;5032925;28;20148;-66
2023/08/31 11:05:17;;;;;;;2.22;1.33;;;22.80;56.50;;;;;;5032304;28;20474;-65
2023/08/31 11:07:48;;;;;;;5.05;1.27;;;23.00;56.40;;;;;;5032648;28;20044;-65
2023/08/31 11:10:22;;;;;;;2.72;1.13;;;23.10;54.80;;;;;;5032103;28;20108;-65
2023/08/31 11:12:50;;;;;;;1.30;1.00;;;23.10;53.50;;;;;;5032621;28;20029;-65
2023/08/31 11:15:18;;;;;;;3.03;1.15;;;23.00;53.00;;;;;;5032515;28;20025;-66
2023/08/31 11:17:44;;;;;;;1.20;1.10;;;22.90;53.20;;;;;;5032501;28;20553;-65
2023/08/31 11:20:15;;;;;;;1.40;1.10;;;22.90;53.30;;;;;;5031912;28;20041;-65
2023/08/31 11:22:42;;;;;;;1.92;1.35;;;22.90;53.10;;;;;;5032472;28;20032;-66
2023/08/31 11:25:10;;;;;;;2.22;1.30;;;22.90;52.70;;;;;;5032036;28;20073;-66
2023/08/31 11:27:37;;;;;;;1.95;1.30;;;23.00;53.10;;;;;;5032562;28;20029;-66
2023/08/31 11:30:04;;;;;;;2.33;1.52;;;22.90;52.10;;;;;;5030916;28;20033;-66
2023/08/31 11:32:29;;;;;;;2.25;0.95;;;23.00;51.80;;;;;;5032189;28;20040;-66
2023/08/31 11:34:55;;;;;;;1.45;1.10;;;23.10;50.60;;;;;;5031789;28;20026;-67
2023/08/31 11:37:21;;;;;;;3.55;0.90;;;23.10;50.00;;;;;;5032239;28;20454;-65
2023/08/31 11:39:53;;;;;;;4.28;1.40;;;23.20;50.20;;;;;;5032063;28;20029;-65
2023/08/31 11:42:21;;;;;;;6.60;1.40;;;23.30;50.40;;;;;;5032193;28;20429;-66
2023/08/31 11:44:52;;;;;;;2.90;1.30;;;23.20;50.20;;;;;;5032229;28;20026;-66
2023/08/31 11:47:19;;;;;;;5.20;1.17;;;23.20;50.00;;;;;;5032185;28;20032;-66
2023/08/31 11:49:46;;;;;;;1.83;1.10;;;23.20;50.30;;;;;;5032164;28;20037;-65
2023/08/31 11:52:12;;;;;;;2.53;0.98;;;23.10;50.80;;;;;;5031842;28;20040;-66
2023/08/31 11:54:39;;;;;;;2.25;1.20;;;23.00;50.60;;;;;;5033012;28;20033;-66
2023/08/31 11:57:08;;;;;;;2.47;1.10;;;23.00;51.50;;;;;;5033398;28;20382;-66
2023/08/31 11:59:38;;;;;;;3.08;1.02;;;23.00;52.00;;;;;;5033237;28;20119;-65
2023/08/31 12:02:10;;;;;;;2.00;1.25;;;23.10;52.50;;;;;;5032706;28;20026;-66
2023/08/31 12:04:45;;;;;;;2.58;1.30;;;23.10;52.40;;;;;;5032623;28;20068;-66
2023/08/31 12:07:16;;;;;;;2.33;1.63;;;23.00;53.00;;;;;;5032367;28;20028;-65
2023/08/31 12:09:44;;;;;;;3.33;1.25;;;23.00;52.30;;;;;;5033121;28;20038;-66
2023/08/31 12:12:10;;;;;;;2.63;1.00;;;23.00;52.20;;;;;;5032084;28;20083;-66
2023/08/31 12:14:39;;;;;;;2.65;1.40;;;23.00;53.00;;;;;;5032092;28;20030;-66
2023/08/31 12:17:06;;;;;;;2.00;1.17;;;23.10;52.70;;;;;;5031077;28;20473;-66
2023/08/31 12:19:33;;;;;;;1.80;1.30;;;23.10;52.40;;;;;;5031218;28;20392;-65
2023/08/31 12:21:59;;;;;;;1.98;1.23;;;23.00;52.50;;;;;;5013517;28;20378;-65
2023/08/31 12:24:25;;;;;;;2.05;1.33;;;23.00;52.50;;;;;;5031727;28;20091;-65
2023/08/31 12:26:54;;;;;;;2.03;1.10;;;23.10;51.90;;;;;;5031284;28;20558;-65
2023/08/31 12:29:21;;;;;;;3.22;1.20;;;23.10;52.00;;;;;;5030698;28;20087;-65
2023/08/31 12:31:47;;;;;;;4.07;1.45;;;23.10;51.80;;;;;;5031329;28;20371;-65
2023/08/31 12:34:13;;;;;;;4.28;1.30;;;23.10;51.50;;;;;;5049893;28;20087;-65
2023/08/31 12:36:40;;;;;;;4.90;1.20;;;23.10;50.70;;;;;;5051687;28;20029;-66
2023/08/31 12:39:09;;;;;;;1.70;1.30;;;23.10;50.80;;;;;;5047990;28;20068;-66
2023/08/31 12:41:35;;;;;;;1.83;1.10;;;23.10;51.00;;;;;;5054763;28;20052;-66
2023/08/31 12:44:03;;;;;;;1.67;1.08;;;23.10;51.50;;;;;;5055032;28;20485;-67
2023/08/31 12:46:29;;;;;;;3.17;1.17;;;23.10;51.10;;;;;;5055333;28;20029;-66
2023/08/31 12:48:54;;;;;;;3.35;1.48;;;23.10;50.90;;;;;;5055277;28;20431;-66
2023/08/31 12:51:20;;;;;;;1.85;1.20;;;23.10;51.80;;;;;;5054632;28;20025;-66